sensor_id;sensor_type;location;lat;lon;timestamp;P1;durP1;ratioP1;P2;durP2;ratioP2
5971;SDS011;3012;49.944;8.454;2024-01-30T00:00:33;21.47;;;12.70;;
5971;SDS011;3012;49.944;8.454;2024-01-30T00:03:01;18.47;;;13.90;;
5971;SDS011;3012;49.944;8.454;2024-01-30T00:05:29;20.30;;;14.17;;
5971;SDS011;3012;49.944;8.454;2024-01-30T00:07:58;22.07;;;13.93;;
5971;SDS011;3012;49.944;8.454;2024-01-30T00:10:27;23.97;;;15.30;;
5971;SDS011;3012;49.944;8.454;2024-01-30T00:12:55;19.43;;;13.47;;
5971;SDS011;3012;49.944;8.454;2024-01-30T00:15:23;22.33;;;15.37;;
5971;SDS011;3012;49.944;8.454;2024-01-30T00:17:51;25.40;;;15.20;;
5971;SDS011;3012;49.944;8.454;2024-01-30T00:20:19;22.37;;;14.23;;
5971;SDS011;3012;49.944;8.454;2024-01-30T00:22:48;22.20;;;14.33;;
5971;SDS011;3012;49.944;8.454;2024-01-30T00:25:18;21.43;;;14.80;;
5971;SDS011;3012;49.944;8.454;2024-01-30T00:27:46;17.90;;;13.43;;
5971;SDS011;3012;49.944;8.454;2024-01-30T00:30:14;22.10;;;13.80;;
5971;SDS011;3012;49.944;8.454;2024-01-30T00:32:42;20.90;;;13.37;;
5971;SDS011;3012;49.944;8.454;2024-01-30T00:35:11;22.77;;;12.93;;
5971;SDS011;3012;49.944;8.454;2024-01-30T00:37:39;18.40;;;13.07;;
5971;SDS011;3012;49.944;8.454;2024-01-30T00:40:07;17.33;;;12.63;;
5971;SDS011;3012;49.944;8.454;2024-01-30T00:42:43;19.63;;;11.10;;
5971;SDS011;3012;49.944;8.454;2024-01-30T00:45:11;15.83;;;11.20;;
5971;SDS011;3012;49.944;8.454;2024-01-30T00:47:40;12.50;;;10.20;;
5971;SDS011;3012;49.944;8.454;2024-01-30T00:50:08;18.53;;;11.53;;
5971;SDS011;3012;49.944;8.454;2024-01-30T00:52:36;16.57;;;11.93;;
5971;SDS011;3012;49.944;8.454;2024-01-30T00:55:07;14.87;;;11.60;;
5971;SDS011;3012;49.944;8.454;2024-01-30T00:57:35;16.97;;;12.43;;
5971;SDS011;3012;49.944;8.454;2024-01-30T01:00:05;15.10;;;11.63;;
5971;SDS011;3012;49.944;8.454;2024-01-30T01:02:35;16.57;;;12.17;;
5971;SDS011;3012;49.944;8.454;2024-01-30T01:05:03;18.30;;;11.83;;
5971;SDS011;3012;49.944;8.454;2024-01-30T01:07:32;14.80;;;11.63;;
5971;SDS011;3012;49.944;8.454;2024-01-30T01:10:00;17.97;;;11.47;;
5971;SDS011;3012;49.944;8.454;2024-01-30T01:12:28;13.30;;;10.83;;
5971;SDS011;3012;49.944;8.454;2024-01-30T01:14:56;18.97;;;11.53;;
5971;SDS011;3012;49.944;8.454;2024-01-30T01:17:26;15.80;;;12.27;;
5971;SDS011;3012;49.944;8.454;2024-01-30T01:19:53;23.17;;;13.27;;
5971;SDS011;3012;49.944;8.454;2024-01-30T01:22:22;17.90;;;12.67;;
5971;SDS011;3012;49.944;8.454;2024-01-30T01:24:50;17.17;;;11.17;;
5971;SDS011;3012;49.944;8.454;2024-01-30T01:27:18;16.03;;;11.13;;
5971;SDS011;3012;49.944;8.454;2024-01-30T01:29:47;19.07;;;13.13;;
5971;SDS011;3012;49.944;8.454;2024-01-30T01:32:15;18.40;;;12.00;;
5971;SDS011;3012;49.944;8.454;2024-01-30T01:34:44;19.27;;;12.67;;
5971;SDS011;3012;49.944;8.454;2024-01-30T01:37:12;21.60;;;12.20;;
5971;SDS011;3012;49.944;8.454;2024-01-30T01:39:41;18.60;;;13.40;;
5971;SDS011;3012;49.944;8.454;2024-01-30T01:42:09;23.07;;;14.27;;
5971;SDS011;3012;49.944;8.454;2024-01-30T01:44:37;18.17;;;12.77;;
5971;SDS011;3012;49.944;8.454;2024-01-30T01:47:06;20.63;;;14.17;;
5971;SDS011;3012;49.944;8.454;2024-01-30T01:49:34;21.83;;;13.80;;
5971;SDS011;3012;49.944;8.454;2024-01-30T01:52:03;17.20;;;12.30;;
5971;SDS011;3012;49.944;8.454;2024-01-30T01:54:32;23.90;;;13.80;;
5971;SDS011;3012;49.944;8.454;2024-01-30T01:57:00;27.13;;;13.40;;
5971;SDS011;3012;49.944;8.454;2024-01-30T01:59:28;19.40;;;12.53;;
5971;SDS011;3012;49.944;8.454;2024-01-30T02:01:57;21.00;;;14.17;;
5971;SDS011;3012;49.944;8.454;2024-01-30T02:04:25;20.00;;;14.20;;
5971;SDS011;3012;49.944;8.454;2024-01-30T02:06:54;23.80;;;14.17;;
5971;SDS011;3012;49.944;8.454;2024-01-30T02:09:23;29.23;;;17.13;;
5971;SDS011;3012;49.944;8.454;2024-01-30T02:11:51;32.00;;;17.63;;
5971;SDS011;3012;49.944;8.454;2024-01-30T02:14:19;33.23;;;17.80;;
5971;SDS011;3012;49.944;8.454;2024-01-30T02:16:47;27.80;;;16.13;;
5971;SDS011;3012;49.944;8.454;2024-01-30T02:19:15;26.03;;;15.40;;
5971;SDS011;3012;49.944;8.454;2024-01-30T02:21:45;24.70;;;15.87;;
5971;SDS011;3012;49.944;8.454;2024-01-30T02:24:14;32.33;;;16.90;;
5971;SDS011;3012;49.944;8.454;2024-01-30T02:26:42;23.47;;;14.87;;
5971;SDS011;3012;49.944;8.454;2024-01-30T02:29:10;24.77;;;15.60;;
5971;SDS011;3012;49.944;8.454;2024-01-30T02:31:37;23.37;;;14.10;;
5971;SDS011;3012;49.944;8.454;2024-01-30T02:34:05;21.93;;;14.73;;
5971;SDS011;3012;49.944;8.454;2024-01-30T02:36:34;22.57;;;13.07;;
5971;SDS011;3012;49.944;8.454;2024-01-30T02:39:03;21.93;;;14.77;;
5971;SDS011;3012;49.944;8.454;2024-01-30T02:41:31;19.67;;;13.13;;
5971;SDS011;3012;49.944;8.454;2024-01-30T02:43:59;17.47;;;12.80;;
5971;SDS011;3012;49.944;8.454;2024-01-30T02:46:27;23.27;;;13.80;;
5971;SDS011;3012;49.944;8.454;2024-01-30T02:48:55;22.27;;;13.67;;
5971;SDS011;3012;49.944;8.454;2024-01-30T02:51:23;26.07;;;14.67;;
5971;SDS011;3012;49.944;8.454;2024-01-30T02:53:51;19.00;;;13.67;;
5971;SDS011;3012;49.944;8.454;2024-01-30T02:56:21;19.13;;;13.43;;
5971;SDS011;3012;49.944;8.454;2024-01-30T02:58:49;19.77;;;14.40;;
5971;SDS011;3012;49.944;8.454;2024-01-30T03:01:17;20.00;;;12.63;;
5971;SDS011;3012;49.944;8.454;2024-01-30T03:03:45;21.80;;;13.97;;
5971;SDS011;3012;49.944;8.454;2024-01-30T03:06:13;17.97;;;12.50;;
5971;SDS011;3012;49.944;8.454;2024-01-30T03:08:44;18.43;;;12.13;;
5971;SDS011;3012;49.944;8.454;2024-01-30T03:11:12;18.30;;;12.47;;
5971;SDS011;3012;49.944;8.454;2024-01-30T03:13:41;19.87;;;12.93;;
5971;SDS011;3012;49.944;8.454;2024-01-30T03:16:09;18.50;;;12.70;;
5971;SDS011;3012;49.944;8.454;2024-01-30T03:18:37;19.63;;;12.17;;
5971;SDS011;3012;49.944;8.454;2024-01-30T03:21:05;16.10;;;12.27;;
5971;SDS011;3012;49.944;8.454;2024-01-30T03:23:34;19.47;;;13.30;;
5971;SDS011;3012;49.944;8.454;2024-01-30T03:26:02;17.90;;;13.37;;
5971;SDS011;3012;49.944;8.454;2024-01-30T03:28:33;17.83;;;12.57;;
5971;SDS011;3012;49.944;8.454;2024-01-30T03:31:02;17.67;;;12.03;;
5971;SDS011;3012;49.944;8.454;2024-01-30T03:33:31;20.83;;;13.40;;
5971;SDS011;3012;49.944;8.454;2024-01-30T03:36:02;19.87;;;13.23;;
5971;SDS011;3012;49.944;8.454;2024-01-30T03:38:30;16.23;;;12.43;;
5971;SDS011;3012;49.944;8.454;2024-01-30T03:40:59;21.70;;;14.03;;
5971;SDS011;3012;49.944;8.454;2024-01-30T03:43:27;19.70;;;12.30;;
5971;SDS011;3012;49.944;8.454;2024-01-30T03:45:56;22.13;;;13.87;;
5971;SDS011;3012;49.944;8.454;2024-01-30T03:48:25;24.17;;;14.13;;
5971;SDS011;3012;49.944;8.454;2024-01-30T03:50:53;21.80;;;14.97;;
5971;SDS011;3012;49.944;8.454;2024-01-30T03:53:21;24.10;;;14.50;;
5971;SDS011;3012;49.944;8.454;2024-01-30T03:55:49;22.93;;;13.93;;
5971;SDS011;3012;49.944;8.454;2024-01-30T03:58:17;18.83;;;14.17;;
5971;SDS011;3012;49.944;8.454;2024-01-30T04:00:45;18.47;;;12.67;;
5971;SDS011;3012;49.944;8.454;2024-01-30T04:03:14;20.10;;;13.77;;
5971;SDS011;3012;49.944;8.454;2024-01-30T04:05:43;22.03;;;15.20;;
5971;SDS011;3012;49.944;8.454;2024-01-30T04:08:12;25.97;;;16.17;;
5971;SDS011;3012;49.944;8.454;2024-01-30T04:10:40;28.10;;;16.20;;
5971;SDS011;3012;49.944;8.454;2024-01-30T04:13:08;30.83;;;18.27;;
5971;SDS011;3012;49.944;8.454;2024-01-30T04:15:38;27.80;;;18.47;;
5971;SDS011;3012;49.944;8.454;2024-01-30T04:18:06;27.07;;;17.67;;
5971;SDS011;3012;49.944;8.454;2024-01-30T04:20:34;23.67;;;16.17;;
5971;SDS011;3012;49.944;8.454;2024-01-30T04:23:04;22.57;;;14.43;;
5971;SDS011;3012;49.944;8.454;2024-01-30T04:25:31;24.33;;;16.37;;
5971;SDS011;3012;49.944;8.454;2024-01-30T04:28:03;22.83;;;14.07;;
5971;SDS011;3012;49.944;8.454;2024-01-30T04:30:31;18.80;;;13.70;;
5971;SDS011;3012;49.944;8.454;2024-01-30T04:32:59;22.50;;;14.17;;
5971;SDS011;3012;49.944;8.454;2024-01-30T04:35:27;20.23;;;14.27;;
5971;SDS011;3012;49.944;8.454;2024-01-30T04:37:55;25.80;;;15.93;;
5971;SDS011;3012;49.944;8.454;2024-01-30T04:40:24;17.23;;;12.90;;
5971;SDS011;3012;49.944;8.454;2024-01-30T04:42:53;20.33;;;13.90;;
5971;SDS011;3012;49.944;8.454;2024-01-30T04:45:21;24.50;;;14.67;;
5971;SDS011;3012;49.944;8.454;2024-01-30T04:47:49;19.30;;;14.47;;
5971;SDS011;3012;49.944;8.454;2024-01-30T04:50:17;22.33;;;15.43;;
5971;SDS011;3012;49.944;8.454;2024-01-30T04:52:45;23.10;;;16.83;;
5971;SDS011;3012;49.944;8.454;2024-01-30T04:55:13;23.30;;;15.43;;
5971;SDS011;3012;49.944;8.454;2024-01-30T04:57:43;21.00;;;14.53;;
5971;SDS011;3012;49.944;8.454;2024-01-30T05:00:11;24.47;;;14.77;;
5971;SDS011;3012;49.944;8.454;2024-01-30T05:02:40;24.77;;;14.97;;
5971;SDS011;3012;49.944;8.454;2024-01-30T05:05:08;27.70;;;15.27;;
5971;SDS011;3012;49.944;8.454;2024-01-30T05:07:36;30.07;;;16.07;;
5971;SDS011;3012;49.944;8.454;2024-01-30T05:10:06;34.90;;;18.67;;
5971;SDS011;3012;49.944;8.454;2024-01-30T05:12:34;34.27;;;18.50;;
5971;SDS011;3012;49.944;8.454;2024-01-30T05:15:05;30.07;;;16.57;;
5971;SDS011;3012;49.944;8.454;2024-01-30T05:17:33;46.77;;;20.30;;
5971;SDS011;3012;49.944;8.454;2024-01-30T05:20:02;48.37;;;19.00;;
5971;SDS011;3012;49.944;8.454;2024-01-30T05:22:31;36.60;;;18.53;;
5971;SDS011;3012;49.944;8.454;2024-01-30T05:24:59;47.63;;;19.67;;
5971;SDS011;3012;49.944;8.454;2024-01-30T05:27:27;44.47;;;19.67;;
5971;SDS011;3012;49.944;8.454;2024-01-30T05:29:55;36.67;;;19.43;;
5971;SDS011;3012;49.944;8.454;2024-01-30T05:32:25;31.17;;;17.03;;
5971;SDS011;3012;49.944;8.454;2024-01-30T05:34:53;60.03;;;20.63;;
5971;SDS011;3012;49.944;8.454;2024-01-30T05:37:21;56.10;;;21.43;;
5971;SDS011;3012;49.944;8.454;2024-01-30T05:39:49;44.60;;;19.27;;
5971;SDS011;3012;49.944;8.454;2024-01-30T05:42:17;51.37;;;21.17;;
5971;SDS011;3012;49.944;8.454;2024-01-30T05:44:45;33.63;;;19.10;;
5971;SDS011;3012;49.944;8.454;2024-01-30T05:47:13;35.83;;;19.93;;
5971;SDS011;3012;49.944;8.454;2024-01-30T05:49:43;33.60;;;18.20;;
5971;SDS011;3012;49.944;8.454;2024-01-30T05:52:11;40.07;;;18.57;;
5971;SDS011;3012;49.944;8.454;2024-01-30T05:54:39;38.30;;;19.80;;
5971;SDS011;3012;49.944;8.454;2024-01-30T05:57:07;36.67;;;19.13;;
5971;SDS011;3012;49.944;8.454;2024-01-30T18:37:53;246.53;;;78.63;;
5971;SDS011;3012;49.944;8.454;2024-01-30T18:43:50;198.17;;;61.63;;
5971;SDS011;3012;49.944;8.454;2024-01-30T18:46:18;254.13;;;79.60;;
5971;SDS011;3012;49.944;8.454;2024-01-30T18:48:49;206.70;;;62.87;;
5971;SDS011;3012;49.944;8.454;2024-01-30T18:51:18;127.30;;;41.40;;
5971;SDS011;3012;49.944;8.454;2024-01-30T18:53:47;74.53;;;32.93;;
5971;SDS011;3012;49.944;8.454;2024-01-30T18:56:16;55.83;;;29.67;;
5971;SDS011;3012;49.944;8.454;2024-01-30T18:58:49;49.40;;;28.13;;
5971;SDS011;3012;49.944;8.454;2024-01-30T19:01:49;44.97;;;23.30;;
5971;SDS011;3012;49.944;8.454;2024-01-30T19:04:17;52.30;;;27.10;;
5971;SDS011;3012;49.944;8.454;2024-01-30T19:06:48;41.90;;;24.73;;
5971;SDS011;3012;49.944;8.454;2024-01-30T19:09:22;40.20;;;23.63;;
5971;SDS011;3012;49.944;8.454;2024-01-30T19:11:52;41.13;;;22.33;;
5971;SDS011;3012;49.944;8.454;2024-01-30T19:14:20;35.67;;;24.03;;
5971;SDS011;3012;49.944;8.454;2024-01-30T19:16:53;34.63;;;23.53;;
5971;SDS011;3012;49.944;8.454;2024-01-30T19:19:23;34.13;;;21.30;;
5971;SDS011;3012;49.944;8.454;2024-01-30T19:21:51;40.43;;;24.63;;
5971;SDS011;3012;49.944;8.454;2024-01-30T19:24:20;42.17;;;24.80;;
5971;SDS011;3012;49.944;8.454;2024-01-30T19:26:52;41.97;;;23.63;;
5971;SDS011;3012;49.944;8.454;2024-01-30T19:29:20;33.90;;;22.37;;
5971;SDS011;3012;49.944;8.454;2024-01-30T19:31:48;27.83;;;20.00;;
5971;SDS011;3012;49.944;8.454;2024-01-30T19:34:18;27.37;;;18.90;;
5971;SDS011;3012;49.944;8.454;2024-01-30T19:36:47;38.70;;;23.27;;
5971;SDS011;3012;49.944;8.454;2024-01-30T19:39:14;33.93;;;20.37;;
5971;SDS011;3012;49.944;8.454;2024-01-30T19:41:45;31.00;;;20.47;;
5971;SDS011;3012;49.944;8.454;2024-01-30T19:44:26;34.20;;;21.80;;
5971;SDS011;3012;49.944;8.454;2024-01-30T19:46:54;47.20;;;23.80;;
5971;SDS011;3012;49.944;8.454;2024-01-30T19:49:26;42.03;;;23.50;;
5971;SDS011;3012;49.944;8.454;2024-01-30T19:51:57;54.63;;;25.83;;
5971;SDS011;3012;49.944;8.454;2024-01-30T19:54:29;92.47;;;34.67;;
5971;SDS011;3012;49.944;8.454;2024-01-30T19:56:59;166.30;;;48.77;;
5971;SDS011;3012;49.944;8.454;2024-01-30T19:59:28;129.03;;;39.63;;
5971;SDS011;3012;49.944;8.454;2024-01-30T20:01:59;63.87;;;31.73;;
5971;SDS011;3012;49.944;8.454;2024-01-30T20:04:29;58.57;;;30.33;;
5971;SDS011;3012;49.944;8.454;2024-01-30T20:07:01;59.97;;;29.60;;
5971;SDS011;3012;49.944;8.454;2024-01-30T20:09:43;42.43;;;25.47;;
5971;SDS011;3012;49.944;8.454;2024-01-30T20:12:11;39.47;;;23.37;;
5971;SDS011;3012;49.944;8.454;2024-01-30T20:14:43;29.70;;;20.13;;
5971;SDS011;3012;49.944;8.454;2024-01-30T20:17:23;36.37;;;22.90;;
5971;SDS011;3012;49.944;8.454;2024-01-30T20:19:52;37.17;;;22.17;;
5971;SDS011;3012;49.944;8.454;2024-01-30T20:22:21;29.83;;;20.83;;
5971;SDS011;3012;49.944;8.454;2024-01-30T20:24:49;29.87;;;18.80;;
5971;SDS011;3012;49.944;8.454;2024-01-30T20:27:29;32.33;;;20.97;;
5971;SDS011;3012;49.944;8.454;2024-01-30T20:30:00;29.57;;;19.83;;
5971;SDS011;3012;49.944;8.454;2024-01-30T20:32:28;28.93;;;19.23;;
5971;SDS011;3012;49.944;8.454;2024-01-30T20:34:56;27.77;;;17.23;;
5971;SDS011;3012;49.944;8.454;2024-01-30T20:37:24;21.73;;;17.37;;
5971;SDS011;3012;49.944;8.454;2024-01-30T20:39:52;31.67;;;22.37;;
5971;SDS011;3012;49.944;8.454;2024-01-30T20:42:20;32.30;;;21.27;;
5971;SDS011;3012;49.944;8.454;2024-01-30T20:44:48;31.17;;;20.50;;
5971;SDS011;3012;49.944;8.454;2024-01-30T20:47:17;38.73;;;22.97;;
5971;SDS011;3012;49.944;8.454;2024-01-30T20:49:46;31.97;;;21.80;;
5971;SDS011;3012;49.944;8.454;2024-01-30T20:52:14;29.50;;;20.03;;
5971;SDS011;3012;49.944;8.454;2024-01-30T20:54:42;28.87;;;18.67;;
5971;SDS011;3012;49.944;8.454;2024-01-30T20:57:10;24.80;;;17.03;;
5971;SDS011;3012;49.944;8.454;2024-01-30T20:59:38;25.27;;;16.03;;
5971;SDS011;3012;49.944;8.454;2024-01-30T21:02:06;32.13;;;20.57;;
5971;SDS011;3012;49.944;8.454;2024-01-30T21:04:35;24.07;;;17.63;;
5971;SDS011;3012;49.944;8.454;2024-01-30T21:07:06;28.13;;;18.27;;
5971;SDS011;3012;49.944;8.454;2024-01-30T21:09:35;25.57;;;17.50;;
5971;SDS011;3012;49.944;8.454;2024-01-30T21:12:03;22.20;;;15.53;;
5971;SDS011;3012;49.944;8.454;2024-01-30T21:14:31;22.20;;;16.60;;
5971;SDS011;3012;49.944;8.454;2024-01-30T21:16:59;30.93;;;18.60;;
5971;SDS011;3012;49.944;8.454;2024-01-30T21:19:28;22.23;;;15.20;;
5971;SDS011;3012;49.944;8.454;2024-01-30T21:21:57;20.83;;;15.80;;
5971;SDS011;3012;49.944;8.454;2024-01-30T21:24:25;31.13;;;20.90;;
5971;SDS011;3012;49.944;8.454;2024-01-30T21:26:53;35.43;;;21.57;;
5971;SDS011;3012;49.944;8.454;2024-01-30T21:29:21;31.23;;;20.63;;
5971;SDS011;3012;49.944;8.454;2024-01-30T21:31:49;32.70;;;21.17;;
5971;SDS011;3012;49.944;8.454;2024-01-30T21:34:17;25.97;;;18.30;;
5971;SDS011;3012;49.944;8.454;2024-01-30T21:36:46;22.27;;;15.67;;
5971;SDS011;3012;49.944;8.454;2024-01-30T21:39:15;32.53;;;18.73;;
5971;SDS011;3012;49.944;8.454;2024-01-30T21:41:43;25.40;;;16.33;;
5971;SDS011;3012;49.944;8.454;2024-01-30T21:44:11;24.73;;;17.10;;
5971;SDS011;3012;49.944;8.454;2024-01-30T21:46:40;27.20;;;18.17;;
5971;SDS011;3012;49.944;8.454;2024-01-30T21:49:08;21.30;;;15.23;;
5971;SDS011;3012;49.944;8.454;2024-01-30T21:51:36;23.30;;;16.80;;
5971;SDS011;3012;49.944;8.454;2024-01-30T21:54:04;25.63;;;17.50;;
5971;SDS011;3012;49.944;8.454;2024-01-30T21:56:35;19.63;;;13.97;;
5971;SDS011;3012;49.944;8.454;2024-01-30T21:59:03;26.87;;;16.43;;
5971;SDS011;3012;49.944;8.454;2024-01-30T22:01:31;22.60;;;16.37;;
5971;SDS011;3012;49.944;8.454;2024-01-30T22:04:00;26.37;;;17.33;;
5971;SDS011;3012;49.944;8.454;2024-01-30T22:06:28;26.40;;;16.03;;
5971;SDS011;3012;49.944;8.454;2024-01-30T22:08:58;19.53;;;15.50;;
5971;SDS011;3012;49.944;8.454;2024-01-30T22:11:27;26.27;;;16.53;;
5971;SDS011;3012;49.944;8.454;2024-01-30T22:13:57;25.33;;;17.63;;
5971;SDS011;3012;49.944;8.454;2024-01-30T22:16:25;22.73;;;17.63;;
5971;SDS011;3012;49.944;8.454;2024-01-30T22:18:53;22.53;;;16.50;;
5971;SDS011;3012;49.944;8.454;2024-01-30T22:21:21;20.37;;;15.70;;
5971;SDS011;3012;49.944;8.454;2024-01-30T22:23:49;26.23;;;16.90;;
5971;SDS011;3012;49.944;8.454;2024-01-30T22:26:17;23.03;;;15.30;;
5971;SDS011;3012;49.944;8.454;2024-01-30T22:28:48;28.20;;;17.00;;
5971;SDS011;3012;49.944;8.454;2024-01-30T22:31:21;28.03;;;16.53;;
5971;SDS011;3012;49.944;8.454;2024-01-30T22:33:49;22.87;;;15.47;;
5971;SDS011;3012;49.944;8.454;2024-01-30T22:36:18;24.30;;;16.97;;
5971;SDS011;3012;49.944;8.454;2024-01-30T22:38:46;29.13;;;18.77;;
5971;SDS011;3012;49.944;8.454;2024-01-30T22:41:20;25.40;;;17.63;;
5971;SDS011;3012;49.944;8.454;2024-01-30T22:43:48;25.17;;;17.60;;
5971;SDS011;3012;49.944;8.454;2024-01-30T22:46:17;32.57;;;19.80;;
5971;SDS011;3012;49.944;8.454;2024-01-30T22:48:48;26.13;;;16.67;;
5971;SDS011;3012;49.944;8.454;2024-01-30T22:51:16;27.63;;;17.37;;
5971;SDS011;3012;49.944;8.454;2024-01-30T22:53:45;23.33;;;17.10;;
5971;SDS011;3012;49.944;8.454;2024-01-30T22:56:16;29.10;;;18.13;;
5971;SDS011;3012;49.944;8.454;2024-01-30T22:58:44;27.83;;;19.10;;
5971;SDS011;3012;49.944;8.454;2024-01-30T23:01:12;23.97;;;17.97;;
5971;SDS011;3012;49.944;8.454;2024-01-30T23:03:41;29.80;;;19.43;;
5971;SDS011;3012;49.944;8.454;2024-01-30T23:06:13;28.60;;;18.63;;
5971;SDS011;3012;49.944;8.454;2024-01-30T23:08:42;26.13;;;19.27;;
5971;SDS011;3012;49.944;8.454;2024-01-30T23:11:10;28.37;;;17.93;;
5971;SDS011;3012;49.944;8.454;2024-01-30T23:13:39;22.63;;;16.30;;
5971;SDS011;3012;49.944;8.454;2024-01-30T23:16:10;26.30;;;17.90;;
5971;SDS011;3012;49.944;8.454;2024-01-30T23:18:44;35.47;;;21.37;;
5971;SDS011;3012;49.944;8.454;2024-01-30T23:21:16;40.43;;;20.20;;
5971;SDS011;3012;49.944;8.454;2024-01-30T23:23:45;39.33;;;19.50;;
5971;SDS011;3012;49.944;8.454;2024-01-30T23:26:24;28.93;;;18.90;;
5971;SDS011;3012;49.944;8.454;2024-01-30T23:31:54;25.43;;;17.67;;
5971;SDS011;3012;49.944;8.454;2024-01-30T23:34:25;32.00;;;19.97;;
5971;SDS011;3012;49.944;8.454;2024-01-30T23:37:26;28.67;;;18.70;;
5971;SDS011;3012;49.944;8.454;2024-01-30T23:39:55;26.30;;;17.30;;
5971;SDS011;3012;49.944;8.454;2024-01-30T23:46:47;36.63;;;22.10;;
5971;SDS011;3012;49.944;8.454;2024-01-30T23:49:25;35.70;;;21.37;;
5971;SDS011;3012;49.944;8.454;2024-01-30T23:51:54;34.47;;;22.40;;
5971;SDS011;3012;49.944;8.454;2024-01-30T23:54:31;36.77;;;21.87;;
5971;SDS011;3012;49.944;8.454;2024-01-30T23:57:00;31.87;;;20.53;;
5971;SDS011;3012;49.944;8.454;2024-01-30T23:59:28;24.77;;;16.80;;
